Time;durP1;ratioP1;P1;durP2;ratioP2;P2;SDS_P1;SDS_P2;PMS_P1;PMS_P2;Temp;Humidity;BMP_temperature;BMP_pressure;BME280_temperature;BME280_humidity;BME280_pressure;Samples;Min_cycle;Max_cycle;Signal;HPM_P1;HPM_P2
2022/10/19 00:02:00;;;;;;;134.50;127.65;;;;;;;14.48;62.05;101652.44;4995988;28;102157;-51
2022/10/19 00:04:27;;;;;;;127.75;121.43;;;;;;;14.47;61.75;101645.31;5005823;28;102038;-51
2022/10/19 00:06:54;;;;;;;132.93;126.28;;;;;;;14.46;61.96;101649.97;5001093;28;102446;-52
2022/10/19 00:09:21;;;;;;;128.73;122.30;;;;;;;14.46;61.80;101641.75;5014281;28;104077;-51
2022/10/19 00:11:49;;;;;;;150.20;142.77;;;;;;;14.43;61.85;101634.91;5015627;28;102394;-51
2022/10/19 00:14:20;;;;;;;147.98;140.68;;;;;;;14.45;62.09;101626.41;5014057;28;102019;-51
2022/10/19 00:16:48;;;;;;;149.43;142.10;;;;;;;14.43;62.01;101628.63;5011026;28;102088;-51
2022/10/19 00:19:17;;;;;;;149.15;141.45;;;;;;;14.42;61.80;101619.59;4992169;28;106529;-51
2022/10/19 00:21:44;;;;;;;167.07;158.93;;;;;;;14.43;61.89;101628.63;4995372;28;102478;-51
2022/10/19 00:24:11;;;;;;;153.13;145.60;;;;;;;14.42;61.97;101616.00;4994695;28;103301;-51
2022/10/19 00:26:38;;;;;;;151.65;144.13;;;;;;;14.42;61.66;101622.31;4996527;28;102297;-51
2022/10/19 00:29:06;;;;;;;152.55;145.02;;;;;;;14.43;61.81;101614.91;4994025;28;104161;-51
2022/10/19 00:31:34;;;;;;;146.57;139.35;;;;;;;14.41;61.87;101606.97;4991006;28;102348;-51
2022/10/19 00:34:00;;;;;;;164.90;156.82;;;;;;;14.42;62.18;101605.03;5014849;28;102366;-51
2022/10/19 00:36:30;;;;;;;161.85;153.98;;;;;;;14.41;61.85;101598.75;5016197;28;101917;-51
2022/10/19 00:38:57;;;;;;;169.50;161.23;;;;;;;14.40;61.73;101591.63;5013823;28;104698;-51
2022/10/19 00:41:27;;;;;;;161.00;153.20;;;;;;;14.41;62.06;101586.97;5013820;28;102155;-51
2022/10/19 00:43:57;;;;;;;162.20;154.23;;;;;;;14.39;61.95;101580.97;5012188;28;102405;-51
2022/10/19 00:46:24;;;;;;;163.13;155.07;;;;;;;14.40;61.79;101577.94;4995891;28;102144;-51
2022/10/19 00:48:58;;;;;;;161.38;153.48;;;;;;;14.39;61.88;101567.28;4994732;28;104246;-51
2022/10/19 00:51:26;;;;;;;161.68;153.68;;;;;;;14.40;61.72;101568.91;4990395;28;103447;-51
2022/10/19 00:53:53;;;;;;;161.23;153.45;;;;;;;14.39;62.00;101559.06;4990147;28;102193;-51
2022/10/19 00:56:21;;;;;;;197.43;187.93;;;;;;;14.39;61.35;101567.28;4995382;28;102202;-51
2022/10/19 00:58:47;;;;;;;166.65;158.55;;;;;;;14.39;61.75;101567.28;4994422;28;104132;-51
2022/10/19 01:01:17;;;;;;;154.70;147.07;;;;;;;14.38;61.64;101558.22;4993401;28;102399;-51
2022/10/19 01:03:44;;;;;;;165.32;157.40;;;;;;;14.38;61.76;101560.94;4995234;28;102049;-51
2022/10/19 01:06:17;;;;;;;169.85;161.63;;;;;;;14.37;61.33;101548.38;4999206;28;102168;-51
2022/10/19 01:08:44;;;;;;;169.20;161.00;;;;;;;14.37;61.88;101547.56;4997184;28;104069;-51
2022/10/19 01:11:23;;;;;;;179.82;171.10;;;;;;;14.36;61.64;101545.91;4996933;28;102286;-51
2022/10/19 01:13:57;;;;;;;;;;;;;;;14.35;61.59;101544.25;4981468;28;102481;-51
2022/10/19 01:16:34;;;;;;;265.55;253.40;;;;;;;14.34;61.80;101532.50;4982202;28;102523;-51
2022/10/19 01:19:17;;;;;;;234.00;222.88;;;;;;;14.35;61.42;101527.81;4978642;28;103880;-51
2022/10/19 01:21:49;;;;;;;243.77;232.35;;;;;;;14.34;61.72;101521.53;4994923;28;102253;-51
2022/10/19 01:24:44;;;;;;;218.10;207.85;;;;;;;14.34;61.85;101515.25;4986025;28;102546;-51
2022/10/19 01:27:43;;;;;;;219.90;209.48;;;;;;;14.35;61.67;101511.41;4998416;28;102437;-51
2022/10/19 01:30:28;;;;;;;249.05;237.45;;;;;;;14.34;61.50;101502.38;4994923;28;103922;-51
2022/10/19 01:33:09;;;;;;;217.30;207.05;;;;;;;14.33;62.46;101502.66;4978015;28;102474;-51
2022/10/19 01:35:45;;;;;;;219.88;209.45;;;;;;;14.32;61.84;101492.81;4977337;28;102367;-51
2022/10/19 01:38:20;;;;;;;188.98;179.93;;;;;;;14.31;61.40;101489.22;4978613;28;101991;-51
2022/10/19 01:40:57;;;;;;;185.85;176.98;;;;;;;14.32;62.00;101484.59;4982116;28;104322;-50
2022/10/19 01:43:34;;;;;;;183.15;174.27;;;;;;;14.31;62.17;101482.94;4997390;28;102167;-51
2022/10/19 01:46:09;;;;;;;175.20;166.82;;;;;;;14.29;62.38;101479.66;4996551;28;102330;-51
2022/10/19 01:48:39;;;;;;;176.10;167.65;;;;;;;14.30;61.67;101475.81;4998644;28;102098;-51
2022/10/19 01:51:12;;;;;;;179.43;170.75;;;;;;;14.28;62.24;101476.13;4995576;28;104218;-51
2022/10/19 01:53:53;;;;;;;190.00;180.82;;;;;;;14.29;61.79;101474.19;4994003;28;101976;-51
2022/10/19 01:56:24;;;;;;;204.60;194.75;;;;;;;14.29;61.63;101475.00;4992883;28;101986;-51
2022/10/19 01:58:55;;;;;;;185.35;176.27;;;;;;;14.29;62.29;101474.19;4994806;28;103741;-51
2022/10/19 02:01:26;;;;;;;181.52;172.73;;;;;;;14.44;62.92;101471.41;4995733;28;103512;-51
2022/10/19 02:03:56;;;;;;;185.77;176.80;;;;;;;14.52;62.79;101473.59;4997508;28;102565;-51
2022/10/19 02:06:22;;;;;;;186.27;177.30;;;;;;;14.55;62.89;101467.56;4990547;28;102392;-51
2022/10/19 02:08:52;;;;;;;174.32;165.73;;;;;;;14.58;62.66;101461.53;4997658;28;102307;-51
2022/10/19 02:11:21;;;;;;;178.23;169.55;;;;;;;14.61;63.06;101463.72;4994147;28;103992;-51
2022/10/19 02:13:51;;;;;;;165.10;157.00;;;;;;;14.62;62.91;101461.78;4996938;28;102046;-51
2022/10/19 02:16:22;;;;;;;169.35;160.77;;;;;;;14.63;63.17;101460.69;4996722;28;102392;-51
2022/10/19 02:18:54;;;;;;;155.80;148.18;;;;;;;14.66;63.13;101458.19;4986512;28;102184;-50
2022/10/19 02:21:21;;;;;;;151.65;144.15;;;;;;;14.68;63.25;101457.09;4976115;28;103969;-51
2022/10/19 02:23:47;;;;;;;142.20;135.20;;;;;;;14.69;63.40;101456.00;4985285;28;104601;-51
2022/10/19 02:26:14;;;;;;;120.45;114.30;;;;;;;14.69;63.48;101450.53;4996611;28;102281;-51
2022/10/19 02:28:41;;;;;;;126.38;119.95;;;;;;;14.69;63.62;101458.75;4998030;28;102548;-51
2022/10/19 02:31:08;;;;;;;119.75;113.60;;;;;;;14.68;63.81;101443.38;4993694;28;103989;-51
2022/10/19 02:33:35;;;;;;;119.57;113.43;;;;;;;14.66;63.49;101447.25;5002329;28;102227;-51
2022/10/19 02:36:04;;;;;;;116.50;110.45;;;;;;;14.68;63.58;101448.88;4996439;28;102563;-51
2022/10/19 02:38:31;;;;;;;126.25;119.93;;;;;;;14.69;64.11;101447.78;4997326;28;101990;-51
2022/10/19 02:41:06;;;;;;;128.60;122.10;;;;;;;14.70;63.76;101441.19;4994501;28;103896;-51
2022/10/19 02:43:37;;;;;;;135.05;128.43;;;;;;;14.71;63.96;101431.88;4989928;28;102355;-51
2022/10/19 02:46:09;;;;;;;116.75;110.90;;;;;;;14.71;63.69;101426.41;5011192;28;102395;-51
2022/10/19 02:48:38;;;;;;;123.07;116.93;;;;;;;14.72;63.96;101430.78;5017704;28;102186;-51
2022/10/19 02:51:25;;;;;;;121.68;115.60;;;;;;;14.70;63.80;101422.84;5016072;28;103812;-51
2022/10/19 02:53:51;;;;;;;134.00;127.07;;;;;;;14.70;64.03;101413.81;5001313;28;102088;-51
2022/10/19 02:56:18;;;;;;;114.95;109.07;;;;;;;14.69;63.83;101418.47;4996230;28;102143;-51
2022/10/19 02:58:44;;;;;;;102.68;97.40;;;;;;;14.70;63.90;101408.31;5017607;28;102621;-51
2022/10/19 03:01:10;;;;;;;103.35;97.95;;;;;;;14.69;63.95;101406.69;5000157;28;104721;-51
2022/10/19 03:03:37;;;;;;;94.72;89.93;;;;;;;14.70;64.16;101408.31;4996810;28;102398;-51
2022/10/19 03:06:03;;;;;;;102.20;96.95;;;;;;;14.73;64.08;101405.84;5001216;28;102293;-51
2022/10/19 03:08:32;;;;;;;102.65;97.28;;;;;;;14.75;63.85;101408.28;4997319;28;102741;-51
2022/10/19 03:11:04;;;;;;;103.38;98.05;;;;;;;14.75;64.30;101411.88;4996244;28;109668;-54
2022/10/19 03:13:30;;;;;;;101.53;96.30;;;;;;;14.73;64.19;101397.63;5015322;28;101976;-51
2022/10/19 03:15:57;;;;;;;91.97;87.22;;;;;;;14.72;64.29;101396.00;4995411;28;102551;-52
2022/10/19 03:18:26;;;;;;;95.55;90.60;;;;;;;14.72;64.04;101395.19;4997501;28;102811;-51
2022/10/19 03:21:01;;;;;;;97.03;91.97;;;;;;;14.74;64.36;101398.44;4995646;28;103905;-51
2022/10/19 03:23:29;;;;;;;102.43;97.07;;;;;;;14.73;64.36;101391.31;4988796;28;102369;-51
2022/10/19 03:25:56;;;;;;;102.68;97.32;;;;;;;14.73;64.24;101396.81;4975904;28;102582;-51
2022/10/19 03:28:23;;;;;;;99.22;94.13;;;;;;;14.74;64.40;101385.56;4977165;28;102303;-51
2022/10/19 03:30:49;;;;;;;90.70;85.85;;;;;;;14.74;64.57;101382.81;4975138;28;103964;-51
2022/10/19 03:33:16;;;;;;;92.53;87.50;;;;;;;14.75;64.42;101389.09;4976220;28;102416;-51
2022/10/19 03:35:43;;;;;;;95.95;91.07;;;;;;;14.74;64.39;101382.00;4994788;28;104876;-51
2022/10/19 03:38:10;;;;;;;91.97;87.22;;;;;;;14.74;64.25;101376.50;4996254;28;102197;-51
2022/10/19 03:40:37;;;;;;;95.57;90.55;;;;;;;14.75;64.16;101372.66;4996063;28;104305;-51
2022/10/19 03:43:05;;;;;;;96.93;91.97;;;;;;;14.75;64.37;101372.66;4995851;28;102180;-51
2022/10/19 03:45:31;;;;;;;95.23;90.30;;;;;;;14.74;64.38;101371.84;4994388;28;102328;-51
2022/10/19 03:47:58;;;;;;;95.72;90.78;;;;;;;14.76;64.42;101368.84;4996715;28;102282;-51
2022/10/19 03:50:25;;;;;;;92.90;87.95;;;;;;;14.75;64.43;101361.72;4994661;28;103926;-51
2022/10/19 03:52:53;;;;;;;91.25;86.40;;;;;;;14.75;64.29;101358.97;4995666;28;102548;-51
2022/10/19 03:55:20;;;;;;;99.13;94.07;;;;;;;14.76;64.17;101353.22;4994171;28;102246;-51
2022/10/19 03:57:46;;;;;;;100.03;94.88;;;;;;;14.75;64.55;101348.00;4996802;28;102709;-51
2022/10/19 04:00:15;;;;;;;102.43;97.05;;;;;;;14.76;64.29;101352.41;4995196;28;103908;-51
2022/10/19 04:02:41;;;;;;;99.70;94.53;;;;;;;14.76;64.42;101346.94;4995549;28;102436;-51
2022/10/19 04:05:08;;;;;;;91.50;86.82;;;;;;;14.76;64.55;101338.72;4991663;28;102555;-51
2022/10/19 04:07:35;;;;;;;93.05;88.22;;;;;;;14.76;64.90;101330.50;4989950;28;102753;-51
2022/10/19 04:10:01;;;;;;;92.65;87.85;;;;;;;14.76;64.50;101333.22;4995028;28;103981;-51
2022/10/19 04:12:30;;;;;;;92.13;87.32;;;;;;;14.76;64.13;101328.56;4995184;28;101959;-51
2022/10/19 04:14:57;;;;;;;102.05;96.95;;;;;;;14.78;64.53;101322.78;4989960;28;102035;-51
2022/10/19 04:17:25;;;;;;;100.72;95.63;;;;;;;14.77;64.60;101330.19;4976384;28;102444;-51
2022/10/19 04:19:54;;;;;;;98.35;93.40;;;;;;;14.76;64.48;101325.81;4983142;28;104277;-51
2022/10/19 04:22:22;;;;;;;104.35;98.68;;;;;;;14.76;64.53;101323.09;4993941;28;102693;-51
2022/10/19 04:24:49;;;;;;;94.60;89.80;;;;;;;14.79;64.92;101325.25;4994079;28;102190;-51
2022/10/19 04:27:16;;;;;;;97.10;92.10;;;;;;;14.79;64.48;101329.94;5006853;28;102170;-51
2022/10/19 04:29:42;;;;;;;95.85;90.60;;;;;;;14.78;64.62;101331.00;5014079;28;103983;-51
2022/10/19 04:32:08;;;;;;;96.30;91.45;;;;;;;14.79;64.65;101324.44;4997626;28;102356;-51
2022/10/19 04:34:36;;;;;;;86.65;82.10;;;;;;;14.78;64.71;101323.59;5002115;28;102250;-51
2022/10/19 04:37:03;;;;;;;89.70;85.13;;;;;;;14.79;64.46;101313.47;5016295;28;102364;-51
2022/10/19 04:39:29;;;;;;;97.65;92.60;;;;;;;14.79;64.42;101308.81;5012096;28;103911;-51
2022/10/19 04:41:56;;;;;;;94.32;89.45;;;;;;;14.79;64.70;101297.03;4998700;28;102233;-51
2022/10/19 04:44:22;;;;;;;95.13;90.07;;;;;;;14.79;64.95;101297.03;5000098;28;102658;-51
2022/10/19 04:46:49;;;;;;;93.00;88.25;;;;;;;14.80;64.66;101298.66;4981321;28;102163;-51
2022/10/19 04:49:15;;;;;;;90.45;85.85;;;;;;;14.79;64.74;101286.91;4978238;28;104005;-51
2022/10/19 04:51:43;;;;;;;83.97;79.60;;;;;;;14.80;64.73;101288.53;4980571;28;102358;-51
2022/10/19 04:54:10;;;;;;;92.57;87.80;;;;;;;14.81;65.12;101294.81;5005784;28;102942;-51
2022/10/19 04:56:38;;;;;;;85.88;81.40;;;;;;;14.81;64.91;101292.88;5015209;28;102190;-51
2022/10/19 04:59:05;;;;;;;90.35;85.57;;;;;;;14.83;64.89;101295.38;5009765;28;103879;-51
2022/10/19 05:01:32;;;;;;;88.40;83.85;;;;;;;14.82;64.82;101290.97;4990040;28;102239;-51
2022/10/19 05:03:59;;;;;;;86.05;81.57;;;;;;;14.82;65.16;101288.22;4998100;28;102262;-52
2022/10/19 05:06:27;;;;;;;84.40;80.00;;;;;;;14.83;64.87;101289.88;4981362;28;102591;-51
2022/10/19 05:08:54;;;;;;;87.40;82.93;;;;;;;14.83;64.88;101287.16;4979786;28;103682;-51
2022/10/19 05:11:21;;;;;;;84.05;79.68;;;;;;;14.83;65.07;101289.88;4989046;28;102113;-51
2022/10/19 05:13:49;;;;;;;86.35;81.78;;;;;;;14.84;65.25;101288.78;4993744;28;102808;-51
2022/10/19 05:16:18;;;;;;;85.97;81.47;;;;;;;14.82;65.21;101285.47;4988070;28;102086;-51
2022/10/19 05:18:47;;;;;;;95.68;90.72;;;;;;;14.83;65.11;101287.16;4997518;28;104229;-51
2022/10/19 05:21:13;;;;;;;96.68;91.55;;;;;;;14.84;65.30;101284.09;4996018;28;102247;-51
2022/10/19 05:23:40;;;;;;;102.93;97.63;;;;;;;14.83;65.29;101268.78;4984282;28;102745;-51
2022/10/19 05:26:11;;;;;;;;;;;;;;;14.85;64.85;101265.72;4991582;28;102358;-51
2022/10/19 05:28:39;;;;;;;206.30;196.30;;;;;;;14.85;65.28;101273.97;4985509;28;104068;-51
2022/10/19 05:31:08;;;;;;;126.50;120.07;;;;;;;14.86;65.03;101267.41;4997597;28;102034;-51
2022/10/19 05:33:35;;;;;;;;;;;;;;;14.87;65.07;101266.28;4986006;28;102055;-51
2022/10/19 05:36:11;;;;;;;224.27;213.77;;;;;;;14.87;65.16;101274.50;4988948;28;102122;-53
2022/10/19 05:38:38;;;;;;;142.38;135.38;;;;;;;14.89;65.29;101275.00;4977645;28;103934;-51
2022/10/19 05:41:05;;;;;;;107.05;101.65;;;;;;;14.89;65.37;101261.31;4979540;28;102175;-51
2022/10/19 05:43:33;;;;;;;99.00;93.80;;;;;;;14.90;65.45;101265.72;4982170;28;102078;-51
2022/10/19 05:46:03;;;;;;;98.15;93.07;;;;;;;14.87;65.62;101260.81;4982828;28;102191;-51
2022/10/19 05:48:32;;;;;;;87.65;82.88;;;;;;;14.89;65.62;101258.56;4990599;28;103432;-51
2022/10/19 05:51:00;;;;;;;90.30;85.70;;;;;;;14.90;65.32;101265.72;4988292;28;102442;-52
2022/10/19 05:53:28;;;;;;;93.18;88.28;;;;;;;14.90;65.23;101266.53;4987352;28;101955;-51
2022/10/19 05:55:54;;;;;;;88.93;84.18;;;;;;;14.90;65.31;101257.50;4996951;28;102705;-51
2022/10/19 05:58:21;;;;;;;87.47;82.90;;;;;;;14.91;65.47;101264.59;4993109;28;104316;-51
2022/10/19 06:00:54;;;;;;;81.30;76.85;;;;;;;14.93;65.51;101259.66;4989393;28;102506;-51
2022/10/19 06:03:22;;;;;;;89.10;84.28;;;;;;;14.90;65.35;101258.31;4978692;28;102447;-51
2022/10/19 06:05:49;;;;;;;81.78;77.43;;;;;;;14.92;65.57;101266.22;4989541;28;102541;-51
2022/10/19 06:08:15;;;;;;;92.78;87.80;;;;;;;14.92;65.54;101268.16;4982581;28;103915;-51
2022/10/19 06:10:42;;;;;;;83.22;78.72;;;;;;;14.93;65.31;101256.91;4989311;28;102489;-51
2022/10/19 06:13:09;;;;;;;81.13;76.88;;;;;;;14.94;65.63;101250.31;4994610;28;102299;-51
2022/10/19 06:15:38;;;;;;;84.82;80.32;;;;;;;14.94;65.37;101250.31;4996343;28;102101;-51
2022/10/19 06:18:10;;;;;;;79.68;75.40;;;;;;;14.95;65.57;101235.50;4983265;28;104303;-51
2022/10/19 06:20:38;;;;;;;87.00;82.45;;;;;;;14.96;65.67;101239.06;4995881;28;102333;-51
2022/10/19 06:23:06;;;;;;;93.65;88.78;;;;;;;14.98;65.48;101242.34;4978891;28;102397;-51
2022/10/19 06:25:34;;;;;;;80.78;76.53;;;;;;;14.98;65.77;101240.41;4996331;28;102250;-51
2022/10/19 06:28:01;;;;;;;82.32;77.97;;;;;;;14.99;65.75;101246.72;4993679;28;103956;-51
2022/10/19 06:30:28;;;;;;;85.03;80.53;;;;;;;15.00;65.56;101227.25;4993646;28;102298;-51
2022/10/19 06:32:57;;;;;;;83.40;79.13;;;;;;;15.01;65.59;101223.41;4984717;28;102539;-51
2022/10/19 06:35:25;;;;;;;83.03;78.55;;;;;;;15.02;65.44;101229.69;4991830;28;102455;-51
2022/10/19 06:37:51;;;;;;;84.43;80.00;;;;;;;15.06;65.35;101225.25;4979623;28;105029;-54
2022/10/19 06:40:18;;;;;;;74.63;70.72;;;;;;;14.99;65.36;101224.78;4994794;28;102078;-51
2022/10/19 06:42:44;;;;;;;77.95;73.25;;;;;;;15.03;65.58;101218.44;4982680;28;102405;-52
2022/10/19 06:45:11;;;;;;;83.03;78.63;;;;;;;15.03;65.95;101215.69;4988963;28;102437;-52
2022/10/19 06:47:37;;;;;;;68.88;64.70;;;;;;;15.07;65.63;101222.25;4996056;28;103878;-51
2022/10/19 06:50:05;;;;;;;73.63;69.63;;;;;;;15.08;65.72;101212.91;4980508;28;102548;-51
2022/10/19 06:52:34;;;;;;;75.22;70.60;;;;;;;15.10;65.54;101202.47;4987912;28;102271;-51
2022/10/19 06:55:00;;;;;;;68.25;64.38;;;;;;;15.12;65.44;101205.75;4989080;28;102189;-51
2022/10/19 06:57:27;;;;;;;75.28;71.05;;;;;;;15.13;65.60;101201.06;4992172;28;104003;-52
2022/10/19 06:59:54;;;;;;;70.45;66.75;;;;;;;15.12;65.70;101192.03;4991730;28;102491;-51
2022/10/19 07:02:21;;;;;;;73.95;69.82;;;;;;;15.14;65.18;101194.47;4986158;28;102240;-52
2022/10/19 07:04:47;;;;;;;77.60;73.60;;;;;;;15.14;65.51;101191.72;4989333;28;102829;-51
2022/10/19 07:07:15;;;;;;;73.10;69.07;;;;;;;15.16;65.49;101199.69;4995133;28;103927;-51
2022/10/19 07:09:43;;;;;;;70.15;66.15;;;;;;;15.18;65.60;101186.50;4996168;28;104035;-52
2022/10/19 07:12:09;;;;;;;71.65;67.85;;;;;;;15.18;65.49;101183.75;4991270;28;102074;-52
2022/10/19 07:14:39;;;;;;;63.97;60.28;;;;;;;15.19;65.17;101183.47;4977817;28;102787;-51
2022/10/19 07:17:06;;;;;;;66.85;63.33;;;;;;;15.21;65.19;101183.97;4975601;28;103769;-52
2022/10/19 07:19:37;;;;;;;65.85;62.03;;;;;;;15.21;65.17;101189.47;4976778;28;102468;-51
2022/10/19 07:22:04;;;;;;;71.38;67.57;;;;;;;15.24;65.25;101174.38;4975808;28;102369;-53
2022/10/19 07:24:30;;;;;;;75.97;71.88;;;;;;;15.24;65.22;101182.59;4985049;28;102381;-52
2022/10/19 07:26:59;;;;;;;68.93;65.22;;;;;;;15.25;65.45;101176.81;4988152;28;103945;-51
2022/10/19 07:29:25;;;;;;;66.70;63.10;;;;;;;15.26;65.23;101172.97;4996110;28;102591;-51
2022/10/19 07:31:52;;;;;;;66.97;63.38;;;;;;;15.26;65.39;101164.75;4995888;28;102598;-51
2022/10/19 07:34:18;;;;;;;67.30;63.65;;;;;;;15.27;65.54;101147.19;4996847;28;102251;-52
2022/10/19 07:36:46;;;;;;;78.18;74.03;;;;;;;15.28;65.57;101150.72;4995031;28;104015;-52
2022/10/19 07:39:15;;;;;;;67.50;63.90;;;;;;;15.31;65.36;101150.16;4995915;28;102262;-51
2022/10/19 07:41:44;;;;;;;65.00;61.60;;;;;;;15.31;65.16;101144.66;4995840;28;102469;-52
2022/10/19 07:44:12;;;;;;;73.50;69.57;;;;;;;15.32;65.31;101146.28;4977325;28;102212;-52
2022/10/19 07:46:39;;;;;;;70.13;66.38;;;;;;;15.33;65.34;101150.69;4984793;28;104083;-52
2022/10/19 07:49:15;;;;;;;69.72;66.03;;;;;;;15.34;65.13;101138.59;4985836;28;102008;-52
2022/10/19 07:51:42;;;;;;;70.40;66.60;;;;;;;15.35;65.20;101134.75;4975407;28;102173;-51
2022/10/19 07:54:08;;;;;;;68.53;64.43;;;;;;;15.38;65.29;101134.16;4994501;28;102183;-52
2022/10/19 07:56:35;;;;;;;62.88;59.47;;;;;;;15.39;65.29;101130.31;4995222;28;103947;-52
2022/10/19 07:59:03;;;;;;;67.68;64.18;;;;;;;15.41;65.36;101122.59;4995686;28;102404;-52
2022/10/19 08:01:33;;;;;;;;;;;;;;;15.39;65.20;101117.41;4988451;28;102126;-52
2022/10/19 08:04:00;;;;;;;105.55;100.15;;;;;;;15.42;64.96;101117.94;4976146;28;102431;-51
2022/10/19 08:06:27;;;;;;;73.57;69.65;;;;;;;15.44;64.94;101110.25;4987008;28;104333;-51
2022/10/19 08:08:55;;;;;;;75.07;71.15;;;;;;;15.45;65.07;101111.88;4984591;28;102856;-52
2022/10/19 08:11:24;;;;;;;67.80;63.83;;;;;;;15.47;64.95;101104.97;4984177;28;103017;-51
2022/10/19 08:13:53;;;;;;;70.60;66.72;;;;;;;15.47;65.10;101115.13;4982974;28;102176;-51
2022/10/19 08:16:22;;;;;;;70.13;66.28;;;;;;;15.48;65.17;101103.88;4974267;28;103957;-51
2022/10/19 08:18:51;;;;;;;70.53;66.72;;;;;;;15.50;65.16;101098.88;4988416;28;102388;-52
2022/10/19 08:21:18;;;;;;;64.35;60.88;;;;;;;15.52;65.03;101096.69;4994714;28;102227;-52
2022/10/19 08:23:46;;;;;;;65.25;61.63;;;;;;;15.52;64.97;101096.69;4995653;28;102270;-52
2022/10/19 08:26:13;;;;;;;75.25;71.22;;;;;;;15.54;65.14;101094.47;4994666;28;104054;-52
2022/10/19 08:28:39;;;;;;;68.03;63.92;;;;;;;15.55;64.95;101093.34;4994299;28;102266;-52
2022/10/19 08:31:11;;;;;;;64.15;60.50;;;;;;;15.56;64.91;101094.97;4994116;28;102442;-52
2022/10/19 08:33:38;;;;;;;74.30;70.05;;;;;;;15.56;64.97;101084.00;5008682;28;102513;-52
2022/10/19 08:36:08;;;;;;;66.65;62.90;;;;;;;15.58;64.82;101078.22;5001305;28;103709;-52
2022/10/19 08:38:36;;;;;;;67.82;63.75;;;;;;;15.58;65.04;101079.03;4994049;28;102793;-51
2022/10/19 08:41:23;;;;;;;64.82;60.78;;;;;;;15.59;64.84;101074.38;4995307;28;102325;-52
2022/10/19 08:44:05;;;;;;;67.78;63.88;;;;;;;15.60;64.80;101068.56;4986610;28;102373;-51
2022/10/19 08:46:41;;;;;;;68.22;64.10;;;;;;;15.61;64.88;101066.63;4993788;28;104716;-52
2022/10/19 08:49:11;;;;;;;69.35;65.40;;;;;;;15.62;65.22;101062.81;4994173;28;102377;-51
2022/10/19 08:51:43;;;;;;;70.35;66.22;;;;;;;15.61;65.09;101067.47;4990945;28;102293;-51
2022/10/19 08:54:15;;;;;;;61.60;57.88;;;;;;;15.63;65.15;101059.75;4991173;28;102276;-52
2022/10/19 08:56:48;;;;;;;65.55;61.38;;;;;;;15.67;64.76;101064.69;4988994;28;107979;-52
2022/10/19 08:59:26;;;;;;;69.05;65.25;;;;;;;15.67;64.95;101064.69;4975375;28;102189;-52
2022/10/19 09:01:56;;;;;;;62.95;59.35;;;;;;;15.68;65.03;101066.31;4975063;28;102003;-52
2022/10/19 09:04:27;;;;;;;65.10;61.53;;;;;;;15.69;64.60;101059.72;4975540;28;101991;-51
2022/10/19 09:07:18;;;;;;;62.05;58.65;;;;;;;15.69;64.60;101067.97;4989000;28;103897;-52
2022/10/19 09:09:50;;;;;;;66.75;63.00;;;;;;;15.68;64.86;101064.38;4994272;28;102324;-52
2022/10/19 09:12:34;;;;;;;67.03;63.30;;;;;;;15.69;64.88;101059.72;4994269;28;102311;-52
2022/10/19 09:15:04;;;;;;;66.95;63.30;;;;;;;15.69;64.82;101055.03;4985093;28;102402;-52
2022/10/19 09:17:32;;;;;;;69.10;64.90;;;;;;;15.70;64.70;101061.34;4990637;28;105075;-52
2022/10/19 09:20:13;;;;;;;63.72;59.95;;;;;;;15.70;64.96;101062.16;4994106;28;102008;-51
2022/10/19 09:22:43;;;;;;;72.75;68.60;;;;;;;15.70;65.04;101053.13;4991317;28;102752;-51
2022/10/19 09:25:17;;;;;;;71.05;66.93;;;;;;;15.70;64.94;101053.13;4993915;28;104341;-52
2022/10/19 09:27:51;;;;;;;68.25;64.55;;;;;;;15.70;64.65;101042.94;5000075;28;103891;-52
2022/10/19 09:30:20;;;;;;;64.97;61.40;;;;;;;15.70;64.65;101029.22;5010893;28;102592;-51
2022/10/19 09:32:50;;;;;;;67.65;64.03;;;;;;;15.70;64.85;101033.91;5014544;28;102703;-52
2022/10/19 09:35:27;;;;;;;67.28;63.63;;;;;;;15.70;64.93;101025.69;4995049;28;102121;-51
2022/10/19 09:37:56;;;;;;;64.32;60.88;;;;;;;15.70;64.73;101022.94;5002108;28;107965;-52
2022/10/19 09:40:25;;;;;;;64.72;60.95;;;;;;;15.70;64.95;101021.00;5007863;28;102672;-52
2022/10/19 09:43:02;;;;;;;64.78;61.15;;;;;;;15.71;64.59;101022.63;4989324;28;102098;-52
2022/10/19 09:45:37;;;;;;;70.07;66.32;;;;;;;15.68;64.51;101014.97;4992170;28;102408;-52
2022/10/19 09:48:15;;;;;;;65.72;62.20;;;;;;;15.69;64.48;101013.09;4999693;28;103914;-51
2022/10/19 09:50:43;;;;;;;69.00;65.30;;;;;;;15.70;64.71;101017.44;5015716;28;102128;-52
2022/10/19 09:53:18;;;;;;;64.75;61.20;;;;;;;15.70;64.81;101009.22;5011556;28;102492;-52
2022/10/19 09:55:49;;;;;;;65.18;61.65;;;;;;;15.69;64.96;101002.09;4988301;28;102191;-52
2022/10/19 09:58:18;;;;;;;65.50;61.97;;;;;;;15.70;64.82;101009.22;4978500;28;104312;-52
2022/10/19 10:00:47;;;;;;;66.72;63.03;;;;;;;15.69;64.96;100996.63;4997950;28;102631;-52
2022/10/19 10:03:28;;;;;;;70.57;66.67;;;;;;;15.70;64.89;100995.50;5014165;28;102248;-52
2022/10/19 10:05:57;;;;;;;68.97;65.07;;;;;;;15.68;64.73;100986.72;5003819;28;102333;-52
2022/10/19 10:08:28;;;;;;;62.72;59.40;;;;;;;15.69;64.66;100986.47;5012597;28;104085;-52
2022/10/19 10:11:05;;;;;;;68.65;64.78;;;;;;;15.68;64.97;100984.00;4993286;28;102387;-52
2022/10/19 10:13:39;;;;;;;74.20;70.03;;;;;;;15.68;64.57;100973.03;4994413;28;102311;-52
2022/10/19 10:16:08;;;;;;;72.47;68.32;;;;;;;15.69;64.69;100974.66;4992217;28;102597;-52
2022/10/19 10:18:39;;;;;;;74.82;70.60;;;;;;;15.67;64.38;100971.41;4973686;28;103996;-52
2022/10/19 10:21:12;;;;;;;71.22;66.85;;;;;;;15.66;64.79;100978.00;4975147;28;102353;-52
2022/10/19 10:23:59;;;;;;;65.10;61.57;;;;;;;15.66;64.86;100969.78;4979576;28;102090;-53
2022/10/19 10:26:26;;;;;;;64.50;60.85;;;;;;;15.65;64.48;100965.34;4979361;28;102288;-52
2022/10/19 10:28:53;;;;;;;71.30;67.30;;;;;;;15.64;64.37;100956.31;4992100;28;103979;-52
2022/10/19 10:31:23;;;;;;;64.88;61.28;;;;;;;15.63;64.64;100955.50;4987347;28;102674;-52
2022/10/19 10:33:56;;;;;;;65.95;61.95;;;;;;;15.63;64.39;100951.94;4993360;28;102127;-52
2022/10/19 10:36:26;;;;;;;68.10;63.95;;;;;;;15.63;64.66;100955.50;4992260;28;102746;-52
2022/10/19 10:38:57;;;;;;;;;;;;;;;15.63;64.70;100944.53;4994314;28;104028;-52
2022/10/19 10:41:27;;;;;;;87.05;82.07;;;;;;;15.63;64.48;100943.72;4995212;28;102623;-51
2022/10/19 10:43:58;;;;;;;74.80;70.25;;;;;;;15.62;64.28;100940.16;4987097;28;102258;-52
2022/10/19 10:46:27;;;;;;;75.53;70.97;;;;;;;15.60;64.62;100939.63;4989448;28;102597;-52
2022/10/19 10:48:57;;;;;;;66.25;62.38;;;;;;;15.62;64.46;100931.94;4992196;28;103864;-52
2022/10/19 10:51:31;;;;;;;68.57;64.32;;;;;;;15.62;64.47;100931.13;4994883;28;102430;-52
2022/10/19 10:54:13;;;;;;;65.68;61.90;;;;;;;15.61;64.18;100922.09;4990216;28;102088;-52
2022/10/19 10:56:42;;;;;;;73.80;69.60;;;;;;;15.60;64.10;100920.44;4993570;28;102104;-52
2022/10/19 10:59:14;;;;;;;64.65;60.97;;;;;;;15.60;64.31;100923.16;4990492;28;104049;-53
2022/10/19 11:01:53;;;;;;;64.13;60.33;;;;;;;15.61;64.29;100924.81;4989338;28;102518;-55
2022/10/19 11:04:27;;;;;;;70.82;66.35;;;;;;;15.61;64.68;100913.00;4993044;28;102176;-52
2022/10/19 11:06:58;;;;;;;72.88;68.50;;;;;;;15.60;64.08;100911.38;4978076;28;102284;-52
2022/10/19 11:09:33;;;;;;;72.78;68.18;;;;;;;15.59;64.26;100915.25;4989073;28;103747;-52
2022/10/19 11:12:03;;;;;;;71.15;66.75;;;;;;;15.59;64.19;100910.56;5011218;28;102303;-52